sensor_id;sensor_type;location;lat;lon;timestamp;noise_LAeq;noise_LA_min;noise_LA_max;noise_LA01;noise_LA95
67314;Laerm;57663;51.436;5.978;2022-12-18T00:00:07;42.23;38.05;49.55;;
67314;Laerm;57663;51.436;5.978;2022-12-18T00:00:18;40.50;37.46;50.04;;
67314;Laerm;57663;51.436;5.978;2022-12-18T00:00:28;41.78;37.08;52.25;;
67314;Laerm;57663;51.436;5.978;2022-12-18T00:00:41;41.18;37.39;52.54;;
67314;Laerm;57663;51.436;5.978;2022-12-18T00:00:52;39.51;36.92;47.47;;
67314;Laerm;57663;51.436;5.978;2022-12-18T00:01:03;39.13;37.27;41.66;;
67314;Laerm;57663;51.436;5.978;2022-12-18T00:01:27;42.61;38.03;48.18;;
67314;Laerm;57663;51.436;5.978;2022-12-18T00:01:37;41.18;37.29;51.25;;
67314;Laerm;57663;51.436;5.978;2022-12-18T00:01:48;42.41;37.68;55.50;;
67314;Laerm;57663;51.436;5.978;2022-12-18T00:01:58;40.71;36.77;50.68;;
67314;Laerm;57663;51.436;5.978;2022-12-18T00:02:09;39.96;36.48;50.47;;
67314;Laerm;57663;51.436;5.978;2022-12-18T00:02:21;40.58;36.27;48.69;;
67314;Laerm;57663;51.436;5.978;2022-12-18T00:02:32;40.45;36.38;47.58;;
67314;Laerm;57663;51.436;5.978;2022-12-18T00:02:42;39.32;37.10;46.16;;
67314;Laerm;57663;51.436;5.978;2022-12-18T00:02:53;40.41;37.95;45.17;;
67314;Laerm;57663;51.436;5.978;2022-12-18T00:03:03;65.26;40.29;74.11;;
67314;Laerm;57663;51.436;5.978;2022-12-18T00:03:14;68.44;64.22;73.89;;
67314;Laerm;57663;51.436;5.978;2022-12-18T00:03:24;66.91;55.59;71.97;;
67314;Laerm;57663;51.436;5.978;2022-12-18T00:03:35;47.77;40.91;56.54;;
67314;Laerm;57663;51.436;5.978;2022-12-18T00:03:46;41.74;38.71;44.95;;
67314;Laerm;57663;51.436;5.978;2022-12-18T00:03:56;40.21;37.66;47.01;;
67314;Laerm;57663;51.436;5.978;2022-12-18T00:04:10;39.01;37.31;42.14;;
67314;Laerm;57663;51.436;5.978;2022-12-18T00:04:25;38.98;36.84;45.91;;
67314;Laerm;57663;51.436;5.978;2022-12-18T00:04:35;39.09;36.60;43.80;;
67314;Laerm;57663;51.436;5.978;2022-12-18T00:04:46;39.24;36.98;42.12;;
67314;Laerm;57663;51.436;5.978;2022-12-18T00:04:56;41.50;37.69;45.36;;
67314;Laerm;57663;51.436;5.978;2022-12-18T00:05:07;39.78;37.15;48.14;;
67314;Laerm;57663;51.436;5.978;2022-12-18T00:05:17;39.30;36.90;44.56;;
67314;Laerm;57663;51.436;5.978;2022-12-18T00:05:27;38.56;36.24;42.02;;
67314;Laerm;57663;51.436;5.978;2022-12-18T00:05:37;39.30;36.25;45.33;;
67314;Laerm;57663;51.436;5.978;2022-12-18T00:05:55;40.41;36.97;49.17;;
67314;Laerm;57663;51.436;5.978;2022-12-18T00:06:05;39.80;37.04;42.91;;
67314;Laerm;57663;51.436;5.978;2022-12-18T00:06:16;42.52;37.57;52.45;;
67314;Laerm;57663;51.436;5.978;2022-12-18T00:06:27;42.63;37.82;51.96;;
67314;Laerm;57663;51.436;5.978;2022-12-18T00:06:38;65.12;43.59;71.72;;
67314;Laerm;57663;51.436;5.978;2022-12-18T00:06:48;68.73;65.18;75.24;;
67314;Laerm;57663;51.436;5.978;2022-12-18T00:06:58;68.76;51.49;75.10;;
67314;Laerm;57663;51.436;5.978;2022-12-18T00:07:09;45.56;41.74;51.53;;
67314;Laerm;57663;51.436;5.978;2022-12-18T00:07:19;44.32;40.35;52.72;;
67314;Laerm;57663;51.436;5.978;2022-12-18T00:07:29;42.02;38.93;46.46;;
67314;Laerm;57663;51.436;5.978;2022-12-18T00:07:40;42.66;40.45;45.21;;
67314;Laerm;57663;51.436;5.978;2022-12-18T00:07:50;41.77;38.81;44.48;;
67314;Laerm;57663;51.436;5.978;2022-12-18T00:08:00;43.27;39.59;49.01;;
67314;Laerm;57663;51.436;5.978;2022-12-18T00:08:10;41.18;38.61;46.93;;
67314;Laerm;57663;51.436;5.978;2022-12-18T00:08:21;42.79;37.71;52.18;;
67314;Laerm;57663;51.436;5.978;2022-12-18T00:08:31;40.00;37.37;46.67;;
67314;Laerm;57663;51.436;5.978;2022-12-18T00:08:42;40.24;37.28;44.07;;
67314;Laerm;57663;51.436;5.978;2022-12-18T00:08:53;39.22;36.88;43.22;;
67314;Laerm;57663;51.436;5.978;2022-12-18T00:09:04;40.30;37.07;47.99;;
67314;Laerm;57663;51.436;5.978;2022-12-18T00:09:14;42.09;37.95;58.61;;
67314;Laerm;57663;51.436;5.978;2022-12-18T00:09:24;40.94;38.53;44.18;;
67314;Laerm;57663;51.436;5.978;2022-12-18T00:09:35;39.54;37.11;43.13;;
67314;Laerm;57663;51.436;5.978;2022-12-18T00:09:45;38.96;36.71;43.16;;
67314;Laerm;57663;51.436;5.978;2022-12-18T00:09:55;40.02;36.69;45.22;;
67314;Laerm;57663;51.436;5.978;2022-12-18T00:10:06;41.22;37.62;46.62;;
67314;Laerm;57663;51.436;5.978;2022-12-18T00:10:16;39.28;36.61;42.22;;
67314;Laerm;57663;51.436;5.978;2022-12-18T00:10:27;40.38;38.00;43.50;;
67314;Laerm;57663;51.436;5.978;2022-12-18T00:10:37;41.29;37.98;45.47;;
67314;Laerm;57663;51.436;5.978;2022-12-18T00:10:48;45.86;41.06;50.44;;
67314;Laerm;57663;51.436;5.978;2022-12-18T00:11:04;40.54;37.77;44.74;;
67314;Laerm;57663;51.436;5.978;2022-12-18T00:11:17;39.65;36.84;42.78;;
67314;Laerm;57663;51.436;5.978;2022-12-18T00:11:28;41.07;37.52;56.18;;
67314;Laerm;57663;51.436;5.978;2022-12-18T00:11:39;41.38;37.32;45.97;;
67314;Laerm;57663;51.436;5.978;2022-12-18T00:11:49;44.22;41.55;47.55;;
67314;Laerm;57663;51.436;5.978;2022-12-18T00:12:00;54.55;42.96;63.86;;
67314;Laerm;57663;51.436;5.978;2022-12-18T00:12:10;56.04;46.31;72.81;;
67314;Laerm;57663;51.436;5.978;2022-12-18T00:12:20;43.57;38.82;50.06;;
67314;Laerm;57663;51.436;5.978;2022-12-18T00:12:31;42.97;38.45;53.96;;
67314;Laerm;57663;51.436;5.978;2022-12-18T00:12:41;42.52;39.11;46.56;;
67314;Laerm;57663;51.436;5.978;2022-12-18T00:12:51;43.16;37.50;48.39;;
67314;Laerm;57663;51.436;5.978;2022-12-18T00:13:02;39.72;37.81;42.01;;
67314;Laerm;57663;51.436;5.978;2022-12-18T00:13:12;39.36;36.97;41.32;;
67314;Laerm;57663;51.436;5.978;2022-12-18T00:13:22;39.06;36.27;45.15;;
67314;Laerm;57663;51.436;5.978;2022-12-18T00:13:33;39.62;37.06;42.94;;
67314;Laerm;57663;51.436;5.978;2022-12-18T00:13:44;39.48;36.97;42.60;;
67314;Laerm;57663;51.436;5.978;2022-12-18T00:13:55;38.89;36.31;45.49;;
67314;Laerm;57663;51.436;5.978;2022-12-18T00:14:05;48.38;36.29;63.93;;
67314;Laerm;57663;51.436;5.978;2022-12-18T00:14:15;41.93;37.02;55.91;;
67314;Laerm;57663;51.436;5.978;2022-12-18T00:14:26;39.93;37.15;46.71;;
67314;Laerm;57663;51.436;5.978;2022-12-18T00:14:36;44.92;37.36;50.26;;
67314;Laerm;57663;51.436;5.978;2022-12-18T00:14:46;40.63;36.44;44.66;;
67314;Laerm;57663;51.436;5.978;2022-12-18T00:14:57;38.83;36.13;44.37;;
67314;Laerm;57663;51.436;5.978;2022-12-18T00:15:07;39.45;36.28;46.57;;
67314;Laerm;57663;51.436;5.978;2022-12-18T00:15:17;43.01;37.37;53.96;;
67314;Laerm;57663;51.436;5.978;2022-12-18T00:15:28;41.56;37.63;47.29;;
67314;Laerm;57663;51.436;5.978;2022-12-18T00:15:38;41.07;36.87;47.41;;
67314;Laerm;57663;51.436;5.978;2022-12-18T00:15:49;39.53;36.51;48.20;;
67314;Laerm;57663;51.436;5.978;2022-12-18T00:16:02;39.06;36.27;46.25;;
67314;Laerm;57663;51.436;5.978;2022-12-18T00:16:14;39.63;37.07;46.19;;
67314;Laerm;57663;51.436;5.978;2022-12-18T00:16:25;41.11;37.04;48.67;;
67314;Laerm;57663;51.436;5.978;2022-12-18T00:16:36;39.09;36.81;43.24;;
67314;Laerm;57663;51.436;5.978;2022-12-18T00:16:47;38.82;36.79;41.87;;
67314;Laerm;57663;51.436;5.978;2022-12-18T00:16:57;38.80;36.38;45.03;;
67314;Laerm;57663;51.436;5.978;2022-12-18T00:17:10;38.57;36.23;41.74;;
67314;Laerm;57663;51.436;5.978;2022-12-18T00:17:20;40.39;38.25;47.59;;
67314;Laerm;57663;51.436;5.978;2022-12-18T00:17:31;41.19;37.93;45.21;;
67314;Laerm;57663;51.436;5.978;2022-12-18T00:17:41;40.05;37.08;46.33;;
67314;Laerm;57663;51.436;5.978;2022-12-18T00:17:51;39.44;36.72;48.52;;
67314;Laerm;57663;51.436;5.978;2022-12-18T00:18:02;41.58;36.91;55.16;;
67314;Laerm;57663;51.436;5.978;2022-12-18T00:18:12;42.11;37.56;53.74;;
67314;Laerm;57663;51.436;5.978;2022-12-18T00:18:22;43.14;37.77;51.32;;
67314;Laerm;57663;51.436;5.978;2022-12-18T00:18:33;51.18;40.59;60.80;;
67314;Laerm;57663;51.436;5.978;2022-12-18T00:18:43;40.99;37.11;48.40;;
67314;Laerm;57663;51.436;5.978;2022-12-18T00:18:54;41.77;38.03;45.69;;
67314;Laerm;57663;51.436;5.978;2022-12-18T00:19:05;40.33;37.19;44.20;;
67314;Laerm;57663;51.436;5.978;2022-12-18T00:19:17;46.10;38.56;64.92;;
67314;Laerm;57663;51.436;5.978;2022-12-18T00:19:27;39.72;37.27;45.31;;
67314;Laerm;57663;51.436;5.978;2022-12-18T00:19:37;38.94;37.07;42.71;;
67314;Laerm;57663;51.436;5.978;2022-12-18T00:19:48;39.49;37.02;44.41;;
67314;Laerm;57663;51.436;5.978;2022-12-18T00:19:58;41.87;37.44;48.03;;
67314;Laerm;57663;51.436;5.978;2022-12-18T00:20:08;38.44;36.36;43.15;;
67314;Laerm;57663;51.436;5.978;2022-12-18T00:20:19;38.33;36.29;40.79;;
67314;Laerm;57663;51.436;5.978;2022-12-18T00:20:36;43.22;37.54;49.26;;
67314;Laerm;57663;51.436;5.978;2022-12-18T00:20:46;39.48;36.38;42.99;;
67314;Laerm;57663;51.436;5.978;2022-12-18T00:21:00;38.09;36.53;40.27;;
67314;Laerm;57663;51.436;5.978;2022-12-18T00:21:11;37.87;36.14;42.24;;
67314;Laerm;57663;51.436;5.978;2022-12-18T00:21:22;38.77;36.21;44.95;;
67314;Laerm;57663;51.436;5.978;2022-12-18T00:21:32;38.37;36.51;43.91;;
67314;Laerm;57663;51.436;5.978;2022-12-18T00:21:43;38.70;36.66;42.33;;
67314;Laerm;57663;51.436;5.978;2022-12-18T00:21:53;39.29;37.26;43.68;;
67314;Laerm;57663;51.436;5.978;2022-12-18T00:22:04;38.29;36.42;43.60;;
67314;Laerm;57663;51.436;5.978;2022-12-18T00:22:15;38.18;36.44;39.69;;
67314;Laerm;57663;51.436;5.978;2022-12-18T00:22:25;38.50;36.86;43.55;;
67314;Laerm;57663;51.436;5.978;2022-12-18T00:22:35;38.25;36.27;40.53;;
67314;Laerm;57663;51.436;5.978;2022-12-18T00:22:45;43.97;38.18;49.81;;
67314;Laerm;57663;51.436;5.978;2022-12-18T00:22:56;43.44;37.66;49.18;;
67314;Laerm;57663;51.436;5.978;2022-12-18T00:23:06;39.92;37.25;43.95;;
67314;Laerm;57663;51.436;5.978;2022-12-18T00:23:16;43.84;38.71;48.66;;
67314;Laerm;57663;51.436;5.978;2022-12-18T00:23:27;42.75;38.28;49.35;;
67314;Laerm;57663;51.436;5.978;2022-12-18T00:23:38;52.15;39.84;65.60;;
67314;Laerm;57663;51.436;5.978;2022-12-18T00:23:48;41.68;37.13;47.99;;
67314;Laerm;57663;51.436;5.978;2022-12-18T00:23:59;39.09;36.89;42.58;;
67314;Laerm;57663;51.436;5.978;2022-12-18T00:24:10;38.95;37.06;42.97;;
67314;Laerm;57663;51.436;5.978;2022-12-18T00:24:20;40.11;36.40;46.65;;
67314;Laerm;57663;51.436;5.978;2022-12-18T00:24:30;40.39;37.39;47.31;;
67314;Laerm;57663;51.436;5.978;2022-12-18T00:24:41;41.02;37.21;51.30;;
67314;Laerm;57663;51.436;5.978;2022-12-18T00:24:51;40.42;36.96;47.26;;
67314;Laerm;57663;51.436;5.978;2022-12-18T00:25:02;43.36;36.98;59.22;;
67314;Laerm;57663;51.436;5.978;2022-12-18T00:25:12;40.54;36.36;50.56;;
67314;Laerm;57663;51.436;5.978;2022-12-18T00:25:22;48.37;40.37;56.49;;
67314;Laerm;57663;51.436;5.978;2022-12-18T00:25:33;40.05;36.66;48.81;;
67314;Laerm;57663;51.436;5.978;2022-12-18T00:25:44;38.29;36.19;43.56;;
67314;Laerm;57663;51.436;5.978;2022-12-18T00:25:54;39.48;36.52;46.45;;
67314;Laerm;57663;51.436;5.978;2022-12-18T00:26:07;39.09;36.48;44.55;;
67314;Laerm;57663;51.436;5.978;2022-12-18T00:26:19;42.61;37.42;47.61;;
67314;Laerm;57663;51.436;5.978;2022-12-18T00:26:32;39.82;36.29;59.06;;
67314;Laerm;57663;51.436;5.978;2022-12-18T00:26:43;37.77;36.11;40.95;;
67314;Laerm;57663;51.436;5.978;2022-12-18T00:26:53;37.92;36.23;39.67;;
67314;Laerm;57663;51.436;5.978;2022-12-18T00:27:03;37.92;35.56;41.79;;
67314;Laerm;57663;51.436;5.978;2022-12-18T00:27:14;37.83;35.99;40.86;;
67314;Laerm;57663;51.436;5.978;2022-12-18T00:27:24;38.63;36.21;42.69;;
67314;Laerm;57663;51.436;5.978;2022-12-18T00:27:34;38.36;36.21;41.68;;
67314;Laerm;57663;51.436;5.978;2022-12-18T00:27:45;38.01;35.93;41.89;;
67314;Laerm;57663;51.436;5.978;2022-12-18T00:27:55;37.77;36.45;39.73;;
67314;Laerm;57663;51.436;5.978;2022-12-18T00:28:05;37.68;36.18;39.80;;
67314;Laerm;57663;51.436;5.978;2022-12-18T00:28:16;37.75;36.29;43.21;;
67314;Laerm;57663;51.436;5.978;2022-12-18T00:28:26;37.82;36.53;39.30;;
67314;Laerm;57663;51.436;5.978;2022-12-18T00:28:36;37.97;36.26;39.52;;
67314;Laerm;57663;51.436;5.978;2022-12-18T00:28:47;38.72;36.16;43.68;;
67314;Laerm;57663;51.436;5.978;2022-12-18T00:28:58;38.88;36.06;42.57;;
67314;Laerm;57663;51.436;5.978;2022-12-18T00:29:12;37.92;36.27;41.73;;
67314;Laerm;57663;51.436;5.978;2022-12-18T00:29:23;38.44;36.51;46.90;;
67314;Laerm;57663;51.436;5.978;2022-12-18T00:29:34;38.21;35.98;40.92;;
67314;Laerm;57663;51.436;5.978;2022-12-18T00:29:44;37.76;36.21;39.69;;
67314;Laerm;57663;51.436;5.978;2022-12-18T00:29:54;37.80;36.39;40.00;;
67314;Laerm;57663;51.436;5.978;2022-12-18T00:30:05;37.88;36.52;39.46;;
67314;Laerm;57663;51.436;5.978;2022-12-18T00:30:15;37.96;36.20;41.50;;
67314;Laerm;57663;51.436;5.978;2022-12-18T00:30:25;37.83;35.68;42.71;;
67314;Laerm;57663;51.436;5.978;2022-12-18T00:30:35;38.08;36.18;40.04;;
67314;Laerm;57663;51.436;5.978;2022-12-18T00:30:46;37.79;36.33;39.69;;
67314;Laerm;57663;51.436;5.978;2022-12-18T00:31:00;37.31;35.50;39.90;;
67314;Laerm;57663;51.436;5.978;2022-12-18T00:31:11;38.12;35.68;47.70;;
67314;Laerm;57663;51.436;5.978;2022-12-18T00:31:23;37.25;35.81;38.40;;
67314;Laerm;57663;51.436;5.978;2022-12-18T00:31:33;37.17;35.66;38.58;;
67314;Laerm;57663;51.436;5.978;2022-12-18T00:31:44;37.41;35.77;38.96;;
67314;Laerm;57663;51.436;5.978;2022-12-18T00:31:54;48.35;36.52;56.41;;
67314;Laerm;57663;51.436;5.978;2022-12-18T00:32:04;45.27;37.53;53.79;;
67314;Laerm;57663;51.436;5.978;2022-12-18T00:32:15;37.65;36.06;39.59;;
67314;Laerm;57663;51.436;5.978;2022-12-18T00:32:25;37.29;35.52;39.53;;
67314;Laerm;57663;51.436;5.978;2022-12-18T00:32:35;37.49;35.79;41.02;;
67314;Laerm;57663;51.436;5.978;2022-12-18T00:32:45;41.00;36.48;47.03;;
67314;Laerm;57663;51.436;5.978;2022-12-18T00:32:57;45.55;37.19;53.95;;
67314;Laerm;57663;51.436;5.978;2022-12-18T00:33:07;37.54;36.06;39.94;;
67314;Laerm;57663;51.436;5.978;2022-12-18T00:33:18;37.39;35.76;38.88;;
67314;Laerm;57663;51.436;5.978;2022-12-18T00:33:28;37.96;35.67;41.27;;
67314;Laerm;57663;51.436;5.978;2022-12-18T00:33:38;37.31;35.99;39.02;;
67314;Laerm;57663;51.436;5.978;2022-12-18T00:33:49;37.36;35.51;40.20;;
67314;Laerm;57663;51.436;5.978;2022-12-18T00:33:59;37.86;36.01;40.14;;
67314;Laerm;57663;51.436;5.978;2022-12-18T00:34:10;37.67;36.13;39.72;;
67314;Laerm;57663;51.436;5.978;2022-12-18T00:34:20;39.81;36.77;44.09;;
67314;Laerm;57663;51.436;5.978;2022-12-18T00:34:31;39.72;36.03;54.68;;
67314;Laerm;57663;51.436;5.978;2022-12-18T00:34:41;37.89;36.26;39.83;;
67314;Laerm;57663;51.436;5.978;2022-12-18T00:34:51;39.20;36.26;51.44;;
67314;Laerm;57663;51.436;5.978;2022-12-18T00:35:01;37.22;35.53;38.39;;
67314;Laerm;57663;51.436;5.978;2022-12-18T00:35:12;37.48;36.10;40.69;;
67314;Laerm;57663;51.436;5.978;2022-12-18T00:35:22;40.16;35.72;60.97;;
67314;Laerm;57663;51.436;5.978;2022-12-18T00:35:32;38.08;36.28;43.94;;
67314;Laerm;57663;51.436;5.978;2022-12-18T00:35:43;37.69;36.30;39.71;;
67314;Laerm;57663;51.436;5.978;2022-12-18T00:35:53;37.46;35.58;39.67;;
67314;Laerm;57663;51.436;5.978;2022-12-18T00:36:15;37.22;35.84;38.77;;
67314;Laerm;57663;51.436;5.978;2022-12-18T00:36:26;41.69;35.54;63.82;;
67314;Laerm;57663;51.436;5.978;2022-12-18T00:36:37;37.39;35.90;39.01;;
67314;Laerm;57663;51.436;5.978;2022-12-18T00:36:47;37.13;35.69;38.44;;
67314;Laerm;57663;51.436;5.978;2022-12-18T00:36:58;37.25;35.88;38.82;;
67314;Laerm;57663;51.436;5.978;2022-12-18T00:37:08;37.37;35.74;39.04;;
67314;Laerm;57663;51.436;5.978;2022-12-18T00:37:18;37.21;35.70;39.29;;
67314;Laerm;57663;51.436;5.978;2022-12-18T00:37:28;37.46;35.75;39.39;;
67314;Laerm;57663;51.436;5.978;2022-12-18T00:37:39;37.48;36.13;38.77;;
67314;Laerm;57663;51.436;5.978;2022-12-18T00:37:49;37.49;35.90;38.80;;
67314;Laerm;57663;51.436;5.978;2022-12-18T00:37:59;37.27;35.64;38.94;;
67314;Laerm;57663;51.436;5.978;2022-12-18T00:38:09;37.64;36.06;42.00;;
67314;Laerm;57663;51.436;5.978;2022-12-18T00:38:20;37.52;35.53;39.51;;
67314;Laerm;57663;51.436;5.978;2022-12-18T00:38:30;37.72;36.14;40.49;;
67314;Laerm;57663;51.436;5.978;2022-12-18T00:38:40;37.32;35.84;39.35;;
67314;Laerm;57663;51.436;5.978;2022-12-18T00:38:51;37.75;36.06;40.94;;
67314;Laerm;57663;51.436;5.978;2022-12-18T00:39:03;37.96;36.20;41.80;;
67314;Laerm;57663;51.436;5.978;2022-12-18T00:39:13;37.90;36.11;40.54;;
67314;Laerm;57663;51.436;5.978;2022-12-18T00:39:24;37.62;36.13;40.19;;
67314;Laerm;57663;51.436;5.978;2022-12-18T00:39:34;37.54;35.98;39.98;;
67314;Laerm;57663;51.436;5.978;2022-12-18T00:39:44;37.78;35.73;42.75;;
67314;Laerm;57663;51.436;5.978;2022-12-18T00:39:54;37.65;35.95;40.46;;
67314;Laerm;57663;51.436;5.978;2022-12-18T00:40:05;37.68;36.12;40.42;;
67314;Laerm;57663;51.436;5.978;2022-12-18T00:40:15;37.88;36.50;39.59;;
67314;Laerm;57663;51.436;5.978;2022-12-18T00:40:26;37.95;36.22;40.88;;
67314;Laerm;57663;51.436;5.978;2022-12-18T00:40:36;38.74;36.11;44.17;;
67314;Laerm;57663;51.436;5.978;2022-12-18T00:40:46;38.85;36.33;43.29;;
67314;Laerm;57663;51.436;5.978;2022-12-18T00:40:57;38.80;36.51;44.31;;
67314;Laerm;57663;51.436;5.978;2022-12-18T00:41:08;37.94;35.87;43.62;;
67314;Laerm;57663;51.436;5.978;2022-12-18T00:41:18;39.06;36.39;46.28;;
67314;Laerm;57663;51.436;5.978;2022-12-18T00:41:47;37.79;35.64;44.59;;
67314;Laerm;57663;51.436;5.978;2022-12-18T00:42:16;37.63;35.68;44.52;;
67314;Laerm;57663;51.436;5.978;2022-12-18T00:42:45;42.26;36.06;49.41;;
67314;Laerm;57663;51.436;5.978;2022-12-18T00:43:08;38.06;36.20;42.15;;
67314;Laerm;57663;51.436;5.978;2022-12-18T00:43:21;38.20;35.95;43.53;;
67314;Laerm;57663;51.436;5.978;2022-12-18T00:43:31;39.25;36.04;42.74;;
67314;Laerm;57663;51.436;5.978;2022-12-18T00:43:44;39.72;36.18;47.40;;
67314;Laerm;57663;51.436;5.978;2022-12-18T00:43:54;39.68;36.84;45.45;;
67314;Laerm;57663;51.436;5.978;2022-12-18T00:44:05;39.53;37.40;42.96;;
67314;Laerm;57663;51.436;5.978;2022-12-18T00:44:17;40.24;36.48;44.56;;
67314;Laerm;57663;51.436;5.978;2022-12-18T00:44:27;38.23;36.64;41.26;;
67314;Laerm;57663;51.436;5.978;2022-12-18T00:44:37;38.02;36.01;39.75;;
67314;Laerm;57663;51.436;5.978;2022-12-18T00:44:48;38.41;36.46;41.99;;
67314;Laerm;57663;51.436;5.978;2022-12-18T00:44:58;37.67;36.11;39.42;;
67314;Laerm;57663;51.436;5.978;2022-12-18T00:45:08;37.90;36.24;39.61;;
67314;Laerm;57663;51.436;5.978;2022-12-18T00:45:25;38.21;36.22;41.84;;
67314;Laerm;57663;51.436;5.978;2022-12-18T00:45:36;37.93;36.61;43.50;;
67314;Laerm;57663;51.436;5.978;2022-12-18T00:45:46;38.64;35.68;45.92;;
67314;Laerm;57663;51.436;5.978;2022-12-18T00:45:57;37.56;36.18;40.83;;
67314;Laerm;57663;51.436;5.978;2022-12-18T00:46:07;38.89;36.27;45.97;;
67314;Laerm;57663;51.436;5.978;2022-12-18T00:46:17;37.89;35.82;40.82;;
67314;Laerm;57663;51.436;5.978;2022-12-18T00:46:27;37.47;35.60;42.43;;
67314;Laerm;57663;51.436;5.978;2022-12-18T00:46:38;38.22;36.14;41.29;;
67314;Laerm;57663;51.436;5.978;2022-12-18T00:46:48;38.00;36.46;41.58;;
67314;Laerm;57663;51.436;5.978;2022-12-18T00:46:59;44.49;36.98;53.93;;
67314;Laerm;57663;51.436;5.978;2022-12-18T00:47:09;44.68;39.92;48.75;;
67314;Laerm;57663;51.436;5.978;2022-12-18T00:47:19;39.78;36.65;43.69;;
67314;Laerm;57663;51.436;5.978;2022-12-18T00:47:30;38.83;36.66;43.35;;
67314;Laerm;57663;51.436;5.978;2022-12-18T00:47:40;39.09;37.06;41.86;;
67314;Laerm;57663;51.436;5.978;2022-12-18T00:47:50;55.57;38.90;66.90;;
67314;Laerm;57663;51.436;5.978;2022-12-18T00:48:01;72.36;65.28;79.41;;
67314;Laerm;57663;51.436;5.978;2022-12-18T00:48:11;66.72;64.62;69.93;;
67314;Laerm;57663;51.436;5.978;2022-12-18T00:48:22;65.93;52.53;69.63;;
67314;Laerm;57663;51.436;5.978;2022-12-18T00:48:32;46.67;41.21;54.46;;
67314;Laerm;57663;51.436;5.978;2022-12-18T00:48:42;41.47;39.66;43.58;;
67314;Laerm;57663;51.436;5.978;2022-12-18T00:48:53;40.70;38.28;45.42;;
67314;Laerm;57663;51.436;5.978;2022-12-18T00:49:03;40.26;38.27;43.15;;
67314;Laerm;57663;51.436;5.978;2022-12-18T00:49:15;42.94;37.64;53.66;;
67314;Laerm;57663;51.436;5.978;2022-12-18T00:49:26;42.83;36.90;55.84;;
67314;Laerm;57663;51.436;5.978;2022-12-18T00:49:36;39.49;36.82;47.03;;
67314;Laerm;57663;51.436;5.978;2022-12-18T00:49:46;39.22;36.42;48.05;;
67314;Laerm;57663;51.436;5.978;2022-12-18T00:49:56;40.46;36.39;51.21;;
67314;Laerm;57663;51.436;5.978;2022-12-18T00:50:07;40.38;36.42;49.95;;
67314;Laerm;57663;51.436;5.978;2022-12-18T00:50:17;40.61;36.03;50.95;;
67314;Laerm;57663;51.436;5.978;2022-12-18T00:50:28;39.56;37.00;49.38;;
67314;Laerm;57663;51.436;5.978;2022-12-18T00:50:38;38.74;36.65;45.79;;
67314;Laerm;57663;51.436;5.978;2022-12-18T00:50:48;38.55;37.18;41.36;;
67314;Laerm;57663;51.436;5.978;2022-12-18T00:50:59;38.08;36.38;40.60;;
67314;Laerm;57663;51.436;5.978;2022-12-18T00:51:09;37.93;36.03;41.74;;
67314;Laerm;57663;51.436;5.978;2022-12-18T00:51:20;39.73;37.11;44.67;;
67314;Laerm;57663;51.436;5.978;2022-12-18T00:51:30;42.60;37.46;47.51;;
67314;Laerm;57663;51.436;5.978;2022-12-18T00:51:40;39.24;36.71;44.55;;
67314;Laerm;57663;51.436;5.978;2022-12-18T00:51:51;37.63;36.10;39.35;;
67314;Laerm;57663;51.436;5.978;2022-12-18T00:52:01;37.64;35.67;41.17;;
67314;Laerm;57663;51.436;5.978;2022-12-18T00:52:12;37.88;35.86;41.98;;
67314;Laerm;57663;51.436;5.978;2022-12-18T00:52:22;38.01;36.26;40.36;;
67314;Laerm;57663;51.436;5.978;2022-12-18T00:52:32;37.79;35.96;40.60;;
67314;Laerm;57663;51.436;5.978;2022-12-18T00:52:42;37.31;35.28;39.46;;
67314;Laerm;57663;51.436;5.978;2022-12-18T00:52:53;37.55;35.98;39.53;;
67314;Laerm;57663;51.436;5.978;2022-12-18T00:53:03;38.34;36.08;41.27;;
67314;Laerm;57663;51.436;5.978;2022-12-18T00:53:13;38.20;36.09;44.46;;
67314;Laerm;57663;51.436;5.978;2022-12-18T00:53:24;38.53;36.12;44.99;;
67314;Laerm;57663;51.436;5.978;2022-12-18T00:53:34;38.66;35.84;50.24;;
67314;Laerm;57663;51.436;5.978;2022-12-18T00:53:44;37.90;35.87;42.19;;
67314;Laerm;57663;51.436;5.978;2022-12-18T00:53:55;37.99;35.58;42.09;;
67314;Laerm;57663;51.436;5.978;2022-12-18T00:54:05;38.76;36.21;44.03;;
67314;Laerm;57663;51.436;5.978;2022-12-18T00:54:15;38.11;36.02;44.65;;
67314;Laerm;57663;51.436;5.978;2022-12-18T00:54:25;37.84;35.52;41.62;;
67314;Laerm;57663;51.436;5.978;2022-12-18T00:54:36;38.12;35.95;45.12;;
67314;Laerm;57663;51.436;5.978;2022-12-18T00:54:46;39.11;36.15;44.61;;
67314;Laerm;57663;51.436;5.978;2022-12-18T00:54:56;38.18;35.75;43.28;;
67314;Laerm;57663;51.436;5.978;2022-12-18T00:55:07;38.61;35.67;44.99;;
67314;Laerm;57663;51.436;5.978;2022-12-18T00:55:18;38.03;36.09;42.70;;
67314;Laerm;57663;51.436;5.978;2022-12-18T00:55:28;38.04;36.08;41.91;;
67314;Laerm;57663;51.436;5.978;2022-12-18T00:55:39;37.80;36.19;40.13;;
67314;Laerm;57663;51.436;5.978;2022-12-18T00:55:49;41.87;37.65;50.35;;
67314;Laerm;57663;51.436;5.978;2022-12-18T00:55:59;41.79;36.75;46.41;;
67314;Laerm;57663;51.436;5.978;2022-12-18T00:56:10;40.52;36.39;47.13;;
67314;Laerm;57663;51.436;5.978;2022-12-18T00:56:20;38.48;35.99;44.62;;
67314;Laerm;57663;51.436;5.978;2022-12-18T00:56:30;38.16;35.49;43.22;;
67314;Laerm;57663;51.436;5.978;2022-12-18T00:56:41;38.33;36.49;43.85;;
67314;Laerm;57663;51.436;5.978;2022-12-18T00:56:51;38.85;36.24;44.58;;
67314;Laerm;57663;51.436;5.978;2022-12-18T00:57:01;42.88;36.13;63.97;;
67314;Laerm;57663;51.436;5.978;2022-12-18T00:57:12;38.56;36.19;45.78;;
67314;Laerm;57663;51.436;5.978;2022-12-18T00:57:22;37.67;35.73;40.50;;
67314;Laerm;57663;51.436;5.978;2022-12-18T00:57:33;38.51;36.37;44.97;;
67314;Laerm;57663;51.436;5.978;2022-12-18T00:57:43;37.62;35.56;41.36;;
67314;Laerm;57663;51.436;5.978;2022-12-18T00:57:53;38.13;36.09;43.69;;
67314;Laerm;57663;51.436;5.978;2022-12-18T00:58:04;38.58;36.03;48.50;;
67314;Laerm;57663;51.436;5.978;2022-12-18T00:58:14;38.00;35.91;41.85;;
67314;Laerm;57663;51.436;5.978;2022-12-18T00:58:25;37.81;36.13;42.06;;
67314;Laerm;57663;51.436;5.978;2022-12-18T00:58:35;39.43;36.01;54.61;;
67314;Laerm;57663;51.436;5.978;2022-12-18T00:58:45;39.94;36.19;57.14;;
67314;Laerm;57663;51.436;5.978;2022-12-18T00:58:56;46.35;39.73;51.36;;
67314;Laerm;57663;51.436;5.978;2022-12-18T00:59:06;38.80;36.22;45.46;;
67314;Laerm;57663;51.436;5.978;2022-12-18T00:59:18;40.43;36.06;59.99;;
67314;Laerm;57663;51.436;5.978;2022-12-18T00:59:28;38.60;36.05;42.30;;
67314;Laerm;57663;51.436;5.978;2022-12-18T00:59:40;42.89;36.29;50.21;;
67314;Laerm;57663;51.436;5.978;2022-12-18T00:59:50;42.26;35.97;52.01;;
67314;Laerm;57663;51.436;5.978;2022-12-18T01:00:00;38.57;35.76;49.58;;
67314;Laerm;57663;51.436;5.978;2022-12-18T01:00:12;41.65;35.64;50.14;;
67314;Laerm;57663;51.436;5.978;2022-12-18T01:00:23;37.46;35.36;40.45;;
67314;Laerm;57663;51.436;5.978;2022-12-18T01:00:33;40.42;35.65;59.31;;
67314;Laerm;57663;51.436;5.978;2022-12-18T01:00:43;38.24;35.89;44.81;;
67314;Laerm;57663;51.436;5.978;2022-12-18T01:00:53;37.21;35.97;38.58;;
67314;Laerm;57663;51.436;5.978;2022-12-18T01:01:04;37.53;36.18;40.17;;
67314;Laerm;57663;51.436;5.978;2022-12-18T01:01:15;41.52;35.66;63.26;;